CW8919 Oeiras PT current weather conditions

sailwx.info

Wind from 044

Air temperature 15.0° C
Dewpoint 12.8° C

Last reported at 2018-Apr-23 02:59 UTC.
Time now 2018-Apr-23 03:58 UTC

Location: N 38°42' W 009°20'.
View on Google Maps.

See reports from other nearby stations

  
Tides and Currents Weather Stations Pressure Air Temp Water Temp Dewpoint Dewpoint Depression Visibility Wind Speed Wind Dir Waves Ship Positions
date/time (UTC)wind fromknots sea level pressurealtimeterstation pressurevisibilityair tempwater tempwave heightnotes
2018-Apr-23 02:59 044 15.0
2018-Apr-23 02:44 044 1 gusting 5 15.0
2018-Apr-23 02:29 044 0 gusting 1 15.0
2018-Apr-23 02:14 044 0 gusting 5 15.0
2018-Apr-23 01:59 044 0 gusting 4 15.0
2018-Apr-23 01:44 044 15.0
2018-Apr-23 01:29 044 15.0
2018-Apr-23 01:14 044 0 gusting 2 15.0
2018-Apr-23 00:59 044 15.6
2018-Apr-23 00:44 047 1 gusting 8 15.6
2018-Apr-23 00:29 039 1 gusting 7 15.6
2018-Apr-23 00:14 044 2 gusting 9 15.6
2018-Apr-22 23:59 046 1 gusting 6 15.6
2018-Apr-22 23:44 050 3 gusting 8 16.1
2018-Apr-22 23:29 052 2 gusting 10 16.1
2018-Apr-22 23:14 054 2 gusting 11 16.1
2018-Apr-22 22:59 036 6 gusting 11 16.7
2018-Apr-22 22:44 045 5 gusting 10 16.7
2018-Apr-22 22:29 011 3 gusting 12 16.7
2018-Apr-22 22:14 342 3 gusting 9 17.2
2018-Apr-22 21:59 348 2 gusting 8 17.2
2018-Apr-22 21:44 002 4 gusting 8 17.2
2018-Apr-22 21:29 354 3 gusting 10 17.2
2018-Apr-22 21:14 336 4 gusting 11 17.2
2018-Apr-22 20:59 004 0 gusting 7 17.2
2018-Apr-22 20:44 333 6 gusting 13 17.2
2018-Apr-22 20:29 351 7 gusting 13 17.2
2018-Apr-22 20:14 354 6 gusting 13 17.2
2018-Apr-22 19:59 020 2 gusting 9 17.2
2018-Apr-22 19:44 348 3 gusting 10 17.2
2018-Apr-22 19:29 349 5 gusting 11 17.2
2018-Apr-22 19:14 350 2 gusting 9 17.8
2018-Apr-22 18:59 329 6 gusting 13 17.8
2018-Apr-22 18:44 326 6 gusting 14 17.8
2018-Apr-22 18:29 336 6 gusting 12 18.3
2018-Apr-22 18:14 342 6 gusting 13 18.3
2018-Apr-22 17:59 343 4 gusting 12 18.3
2018-Apr-22 17:44 345 8 gusting 14 18.9
2018-Apr-22 17:29 326 11 gusting 19 18.9
2018-Apr-22 17:14 341 6 gusting 14 19.4
2018-Apr-22 16:59 346 4 gusting 11 19.4
2018-Apr-22 16:44 347 5 gusting 13 19.4
2018-Apr-22 16:29 339 7 gusting 13 20.0
2018-Apr-22 16:14 001 5 gusting 11 20.0
2018-Apr-22 15:59 072 2 gusting 6 20.0
2018-Apr-22 15:44 073 19.4
2018-Apr-22 15:29 074 19.4
2018-Apr-22 15:14 074 0 gusting 5 19.4
2018-Apr-22 14:59 073 1 gusting 7 20.0
2018-Apr-22 14:44 071 4 gusting 7 21.7
2018-Apr-22 14:29 064 1 gusting 13 21.7
2018-Apr-22 14:14 057 1 gusting 7 21.7
2018-Apr-22 13:59 058 5 gusting 8 21.1
2018-Apr-22 13:44 066 3 gusting 6 20.0
2018-Apr-22 13:29 065 2 gusting 5 19.4
2018-Apr-22 13:14 065 1 gusting 5 19.4
2018-Apr-22 12:59 066 1 gusting 11 19.4
2018-Apr-22 12:44 074 1 gusting 6 19.4
2018-Apr-22 12:29 073 2 gusting 7 20.0
2018-Apr-22 12:14 076 3 gusting 9 20.0
2018-Apr-22 11:59 077 1 gusting 6 20.0
2018-Apr-22 11:44 077 3 gusting 8 18.9
2018-Apr-22 11:29 082 0 gusting 3 18.3
2018-Apr-22 11:14 082 1 gusting 9 18.3
2018-Apr-22 10:59 112 0 gusting 6 18.3
2018-Apr-22 10:44 114 0 gusting 6 17.8
2018-Apr-22 10:29 113 0 gusting 5 17.8
2018-Apr-22 10:14 114 0 gusting 3 17.8
2018-Apr-22 09:59 114 0 gusting 6 17.8
2018-Apr-22 09:44 114 0 gusting 8 17.2
2018-Apr-22 09:29 115 2 gusting 6 16.7
2018-Apr-22 09:14 115 0 gusting 3 16.7
2018-Apr-22 08:59 115 0 gusting 2 16.1
2018-Apr-22 08:44 114 15.6
2018-Apr-22 08:29 114 15.6
2018-Apr-22 08:14 114 15.6
2018-Apr-22 07:59 137 15.6
2018-Apr-22 07:44 137 1 gusting 7 16.1
2018-Apr-22 07:29 088 16.1
2018-Apr-22 07:14 089 0 gusting 3 15.6
2018-Apr-22 06:59 089 15.6
2018-Apr-22 06:44 089 15.6
2018-Apr-22 06:29 089 0 gusting 2 15.6
2018-Apr-22 06:14 088 0 gusting 2 15.0
2018-Apr-22 05:59 094 15.0
2018-Apr-22 05:44 094 15.0
2018-Apr-22 05:29 094 15.0
2018-Apr-22 05:14 094 15.0
2018-Apr-22 04:59 094 15.0
2018-Apr-22 04:44 094 15.6
2018-Apr-22 04:29 094 1 gusting 6 15.6
2018-Apr-22 04:14 094 0 gusting 2 15.6
2018-Apr-22 03:59 094 15.6
2018-Apr-22 03:44 094 0 gusting 3 15.6
2018-Apr-22 03:29 094 1 gusting 3 15.6
2018-Apr-22 03:14 094 0 gusting 5 15.6
2018-Apr-22 02:59 094 0 gusting 5 15.6
2018-Apr-22 02:44 094 1 gusting 4 15.6
2018-Apr-22 02:29 095 1 gusting 4 15.6
2018-Apr-22 02:14 095 0 gusting 7 15.6
2018-Apr-22 01:59 097 0 gusting 7 15.6
2018-Apr-22 01:44 102 1 gusting 6 15.6
2018-Apr-22 01:29 102 0 gusting 5 15.6
2018-Apr-22 01:14 104 1 gusting 5 15.6
2018-Apr-22 00:59 104 0 gusting 5 15.6
2018-Apr-22 00:44 104 0 gusting 5 15.6
2018-Apr-22 00:29 103 0 gusting 6 16.1
2018-Apr-22 00:14 103 2 gusting 6 16.1
2018-Apr-21 23:59 104 0 gusting 6 16.1
2018-Apr-21 23:44 104 1 gusting 3 16.1
2018-Apr-21 23:29 108 1 gusting 8 16.1
2018-Apr-21 23:14 148 0 gusting 3 16.1
2018-Apr-21 22:59 153 0 gusting 4 16.1
2018-Apr-21 22:44 157 1 gusting 4 16.1
2018-Apr-21 22:29 158 0 gusting 4 16.1
2018-Apr-21 22:14 158 1 gusting 6 16.1
2018-Apr-21 21:59 158 16.1
2018-Apr-21 21:44 157 16.1
2018-Apr-21 21:29 157 0 gusting 2 16.1
2018-Apr-21 21:14 157 0 gusting 3 16.1
2018-Apr-21 20:59 157 16.1
2018-Apr-21 20:44 158 15.6
2018-Apr-21 20:29 158 15.6
2018-Apr-21 20:14 158 15.6
2018-Apr-21 19:59 158 16.1
2018-Apr-21 19:44 158 16.1
2018-Apr-21 19:29 158 16.1
2018-Apr-21 19:14 160 16.1
2018-Apr-21 18:59 161 16.7
2018-Apr-21 18:44 162 16.7
2018-Apr-21 18:29 163 16.7
2018-Apr-21 18:14 162 16.7
2018-Apr-21 17:59 161 16.7
2018-Apr-21 17:44 160 17.2
2018-Apr-21 17:29 159 0 gusting 6 17.2
2018-Apr-21 17:14 156 3 gusting 8 17.8
2018-Apr-21 16:59 153 2 gusting 6 18.3
2018-Apr-21 16:44 150 0 gusting 8 17.8
2018-Apr-21 16:29 152 4 gusting 9 17.8
2018-Apr-21 16:14 152 5 gusting 9 17.8
2018-Apr-21 15:59 156 4 gusting 8 17.8
2018-Apr-21 15:44 153 3 gusting 7 17.2
2018-Apr-21 15:29 152 2 gusting 9 17.2
2018-Apr-21 15:14 152 0 gusting 8 16.7
2018-Apr-21 14:59 152 4 gusting 8 16.1
2018-Apr-21 14:44 165 3 gusting 8 16.1
2018-Apr-21 14:29 167 5 gusting 10 16.1
2018-Apr-21 14:14 119 0 gusting 8 16.7
2018-Apr-21 13:59 114 17.2
2018-Apr-21 13:44 114 2 gusting 8 16.7
2018-Apr-21 13:29 110 2 gusting 10 16.7
2018-Apr-21 13:14 100 2 gusting 12 16.7
2018-Apr-21 12:59 089 3 gusting 10 16.7
2018-Apr-21 12:44 118 3 gusting 11 16.7
2018-Apr-21 12:29 100 6 gusting 13 16.7
2018-Apr-21 12:14 108 6 gusting 11 16.7
2018-Apr-21 11:59 128 2 gusting 16 16.7
2018-Apr-21 11:44 091 6 gusting 19 16.1
2018-Apr-21 11:29 092 8 gusting 16 16.1
2018-Apr-21 11:14 087 6 gusting 14 16.1
2018-Apr-21 10:59 079 6 gusting 13 16.1
2018-Apr-21 10:44 072 0 gusting 9 16.1
2018-Apr-21 10:29 068 2 gusting 10 16.1
2018-Apr-21 10:14 046 2 gusting 8 15.6
2018-Apr-21 09:59 046 0 gusting 8 15.6
2018-Apr-21 09:44 047 2 gusting 6 15.6
2018-Apr-21 09:29 048 4 gusting 9 15.6
2018-Apr-21 09:14 057 15.6
2018-Apr-21 08:59 057 15.6
2018-Apr-21 08:44 057 15.6
2018-Apr-21 08:29 057 15.6
2018-Apr-21 08:14 057 15.6
2018-Apr-21 07:59 057 15.6
2018-Apr-21 07:44 056 15.6
2018-Apr-21 07:29 056 15.6
2018-Apr-21 07:14 056 15.6
2018-Apr-21 06:59 056 15.6
2018-Apr-21 06:44 056 0 gusting 6 15.6
2018-Apr-21 06:29 055 15.6
2018-Apr-21 06:14 037 1 gusting 6 15.6
2018-Apr-21 05:59 037 15.6
2018-Apr-21 05:44 033 15.6
2018-Apr-21 05:29 031 2 gusting 5 15.6
2018-Apr-21 05:14 034 2 gusting 7 15.6
2018-Apr-21 04:59 038 0 gusting 12 15.6
2018-Apr-21 04:44 030 1 gusting 11 15.6
2018-Apr-21 04:29 054 2 gusting 7 15.6
2018-Apr-21 04:14 056 1 gusting 8 15.6
2018-Apr-21 03:59 060 1 gusting 7 15.6
2018-Apr-21 03:44 060 1 gusting 5 15.0
2018-Apr-21 03:29 061 15.0
2018-Apr-21 03:14 061 15.0